sensor_id;sensor_type;location;lat;lon;timestamp;temperature;humidity
84807;DHT22;75042;43.504;3.714;2024-02-15T00:01:31;5.50;96.60
84807;DHT22;75042;43.504;3.714;2024-02-15T00:03:56;5.50;96.90
84807;DHT22;75042;43.504;3.714;2024-02-15T00:06:22;5.50;96.90
84807;DHT22;75042;43.504;3.714;2024-02-15T00:08:48;5.50;97.30
84807;DHT22;75042;43.504;3.714;2024-02-15T00:11:17;5.60;97.20
84807;DHT22;75042;43.504;3.714;2024-02-15T00:13:43;5.80;95.90
84807;DHT22;75042;43.504;3.714;2024-02-15T00:16:12;5.80;95.50
84807;DHT22;75042;43.504;3.714;2024-02-15T00:18:38;5.80;95.50
84807;DHT22;75042;43.504;3.714;2024-02-15T00:21:05;5.80;96.10
84807;DHT22;75042;43.504;3.714;2024-02-15T00:23:30;5.90;96.10
84807;DHT22;75042;43.504;3.714;2024-02-15T00:25:57;5.90;95.80
84807;DHT22;75042;43.504;3.714;2024-02-15T00:28:23;5.90;95.80
84807;DHT22;75042;43.504;3.714;2024-02-15T00:30:49;5.90;96.00
84807;DHT22;75042;43.504;3.714;2024-02-15T00:33:15;5.90;96.10
84807;DHT22;75042;43.504;3.714;2024-02-15T00:35:42;6.00;95.90
84807;DHT22;75042;43.504;3.714;2024-02-15T00:38:07;6.10;95.60
84807;DHT22;75042;43.504;3.714;2024-02-15T00:40:33;6.10;95.30
84807;DHT22;75042;43.504;3.714;2024-02-15T00:43:02;6.20;95.10
84807;DHT22;75042;43.504;3.714;2024-02-15T00:45:28;6.20;95.00
84807;DHT22;75042;43.504;3.714;2024-02-15T00:47:53;6.20;95.30
84807;DHT22;75042;43.504;3.714;2024-02-15T00:50:19;6.30;96.00
84807;DHT22;75042;43.504;3.714;2024-02-15T00:52:44;6.30;96.70
84807;DHT22;75042;43.504;3.714;2024-02-15T00:55:10;6.40;97.00
84807;DHT22;75042;43.504;3.714;2024-02-15T00:57:36;6.40;97.50
84807;DHT22;75042;43.504;3.714;2024-02-15T01:00:01;6.50;98.30
84807;DHT22;75042;43.504;3.714;2024-02-15T01:02:28;6.60;98.10
84807;DHT22;75042;43.504;3.714;2024-02-15T01:04:54;6.60;98.30
84807;DHT22;75042;43.504;3.714;2024-02-15T01:07:22;6.70;99.10
84807;DHT22;75042;43.504;3.714;2024-02-15T01:09:52;6.90;99.90
84807;DHT22;75042;43.504;3.714;2024-02-15T01:12:18;6.90;99.90
84807;DHT22;75042;43.504;3.714;2024-02-15T01:14:43;7.00;99.90
84807;DHT22;75042;43.504;3.714;2024-02-15T01:17:09;7.00;99.90
84807;DHT22;75042;43.504;3.714;2024-02-15T01:19:34;7.10;99.90
84807;DHT22;75042;43.504;3.714;2024-02-15T01:22:00;7.10;99.90
84807;DHT22;75042;43.504;3.714;2024-02-15T01:24:25;7.20;99.90
84807;DHT22;75042;43.504;3.714;2024-02-15T01:26:51;7.20;99.90
84807;DHT22;75042;43.504;3.714;2024-02-15T01:29:18;7.20;99.80
84807;DHT22;75042;43.504;3.714;2024-02-15T01:31:43;7.10;99.50
84807;DHT22;75042;43.504;3.714;2024-02-15T01:34:10;7.00;99.70
84807;DHT22;75042;43.504;3.714;2024-02-15T01:36:35;7.00;99.90
84807;DHT22;75042;43.504;3.714;2024-02-15T01:39:01;7.10;99.90
84807;DHT22;75042;43.504;3.714;2024-02-15T01:41:26;7.10;99.90
84807;DHT22;75042;43.504;3.714;2024-02-15T01:43:52;7.10;99.90
84807;DHT22;75042;43.504;3.714;2024-02-15T01:46:17;7.20;99.90
84807;DHT22;75042;43.504;3.714;2024-02-15T01:48:44;7.20;99.90
84807;DHT22;75042;43.504;3.714;2024-02-15T01:51:11;7.20;99.90
84807;DHT22;75042;43.504;3.714;2024-02-15T01:53:37;7.30;99.90
84807;DHT22;75042;43.504;3.714;2024-02-15T01:56:04;7.40;99.90
84807;DHT22;75042;43.504;3.714;2024-02-15T01:58:30;7.50;99.90
84807;DHT22;75042;43.504;3.714;2024-02-15T02:00:57;7.70;99.90
84807;DHT22;75042;43.504;3.714;2024-02-15T02:03:23;7.80;99.90
84807;DHT22;75042;43.504;3.714;2024-02-15T02:05:49;7.80;99.90
84807;DHT22;75042;43.504;3.714;2024-02-15T02:08:14;7.90;99.90
84807;DHT22;75042;43.504;3.714;2024-02-15T02:10:40;7.90;99.90
84807;DHT22;75042;43.504;3.714;2024-02-15T02:13:06;7.90;99.90
84807;DHT22;75042;43.504;3.714;2024-02-15T02:15:31;7.90;99.90
84807;DHT22;75042;43.504;3.714;2024-02-15T02:17:57;8.00;99.90
84807;DHT22;75042;43.504;3.714;2024-02-15T02:20:26;8.00;99.90
84807;DHT22;75042;43.504;3.714;2024-02-15T02:22:53;8.00;99.90
84807;DHT22;75042;43.504;3.714;2024-02-15T02:25:20;8.10;99.90
84807;DHT22;75042;43.504;3.714;2024-02-15T02:27:46;8.10;99.90
84807;DHT22;75042;43.504;3.714;2024-02-15T02:30:13;8.20;99.90
84807;DHT22;75042;43.504;3.714;2024-02-15T02:32:45;8.20;99.90
84807;DHT22;75042;43.504;3.714;2024-02-15T02:35:11;8.30;99.90
84807;DHT22;75042;43.504;3.714;2024-02-15T02:37:38;8.40;99.90
84807;DHT22;75042;43.504;3.714;2024-02-15T02:40:07;8.40;99.90
84807;DHT22;75042;43.504;3.714;2024-02-15T02:45:16;8.50;99.90
84807;DHT22;75042;43.504;3.714;2024-02-15T02:47:41;8.60;99.90
84807;DHT22;75042;43.504;3.714;2024-02-15T02:50:07;8.60;99.90
84807;DHT22;75042;43.504;3.714;2024-02-15T02:52:33;8.70;99.90
84807;DHT22;75042;43.504;3.714;2024-02-15T02:54:59;8.80;99.90
84807;DHT22;75042;43.504;3.714;2024-02-15T02:57:24;8.80;99.90
84807;DHT22;75042;43.504;3.714;2024-02-15T02:59:51;8.90;99.90
84807;DHT22;75042;43.504;3.714;2024-02-15T03:02:16;8.90;99.90
84807;DHT22;75042;43.504;3.714;2024-02-15T03:04:43;8.90;99.90
84807;DHT22;75042;43.504;3.714;2024-02-15T03:07:09;8.90;99.90
84807;DHT22;75042;43.504;3.714;2024-02-15T03:09:34;8.90;99.90
84807;DHT22;75042;43.504;3.714;2024-02-15T03:12:02;8.90;99.90
84807;DHT22;75042;43.504;3.714;2024-02-15T03:14:28;9.00;99.90
84807;DHT22;75042;43.504;3.714;2024-02-15T03:16:55;9.00;99.90
84807;DHT22;75042;43.504;3.714;2024-02-15T03:19:21;9.00;99.90
84807;DHT22;75042;43.504;3.714;2024-02-15T03:21:48;9.10;99.90
84807;DHT22;75042;43.504;3.714;2024-02-15T03:24:13;9.10;99.90
84807;DHT22;75042;43.504;3.714;2024-02-15T03:26:39;9.20;99.90
84807;DHT22;75042;43.504;3.714;2024-02-15T03:29:05;9.20;99.90
84807;DHT22;75042;43.504;3.714;2024-02-15T03:31:33;9.30;99.90
84807;DHT22;75042;43.504;3.714;2024-02-15T03:34:00;9.30;99.90
84807;DHT22;75042;43.504;3.714;2024-02-15T03:36:25;9.30;99.90
84807;DHT22;75042;43.504;3.714;2024-02-15T03:38:51;9.40;99.90
84807;DHT22;75042;43.504;3.714;2024-02-15T03:41:19;9.40;99.90
84807;DHT22;75042;43.504;3.714;2024-02-15T03:43:45;9.40;99.90
84807;DHT22;75042;43.504;3.714;2024-02-15T03:46:11;9.40;99.90
84807;DHT22;75042;43.504;3.714;2024-02-15T03:48:42;9.40;99.90
84807;DHT22;75042;43.504;3.714;2024-02-15T03:51:09;9.40;99.90
84807;DHT22;75042;43.504;3.714;2024-02-15T03:53:34;9.40;99.90
84807;DHT22;75042;43.504;3.714;2024-02-15T03:56:05;9.40;99.90
84807;DHT22;75042;43.504;3.714;2024-02-15T03:58:31;9.50;99.90
84807;DHT22;75042;43.504;3.714;2024-02-15T04:00:58;9.60;99.90
84807;DHT22;75042;43.504;3.714;2024-02-15T04:03:24;9.60;99.90
84807;DHT22;75042;43.504;3.714;2024-02-15T04:05:49;9.70;99.90
84807;DHT22;75042;43.504;3.714;2024-02-15T04:08:15;9.80;99.90
84807;DHT22;75042;43.504;3.714;2024-02-15T04:10:42;9.80;99.90
84807;DHT22;75042;43.504;3.714;2024-02-15T04:13:07;9.90;99.90
84807;DHT22;75042;43.504;3.714;2024-02-15T04:15:33;9.90;99.90
84807;DHT22;75042;43.504;3.714;2024-02-15T04:17:59;9.90;99.90
84807;DHT22;75042;43.504;3.714;2024-02-15T04:20:25;9.90;99.90
84807;DHT22;75042;43.504;3.714;2024-02-15T04:22:51;9.90;99.90
84807;DHT22;75042;43.504;3.714;2024-02-15T04:25:17;9.90;99.90
84807;DHT22;75042;43.504;3.714;2024-02-15T04:27:44;9.90;99.90
84807;DHT22;75042;43.504;3.714;2024-02-15T04:30:10;9.90;99.90
84807;DHT22;75042;43.504;3.714;2024-02-15T04:32:36;9.90;99.90
84807;DHT22;75042;43.504;3.714;2024-02-15T04:35:02;9.90;99.90
84807;DHT22;75042;43.504;3.714;2024-02-15T04:37:29;9.90;99.90
84807;DHT22;75042;43.504;3.714;2024-02-15T04:39:55;9.90;99.90
84807;DHT22;75042;43.504;3.714;2024-02-15T04:42:21;9.90;99.90
84807;DHT22;75042;43.504;3.714;2024-02-15T04:44:48;9.90;99.90
84807;DHT22;75042;43.504;3.714;2024-02-15T04:47:13;9.90;99.90
84807;DHT22;75042;43.504;3.714;2024-02-15T04:49:40;9.90;99.90
84807;DHT22;75042;43.504;3.714;2024-02-15T04:52:05;9.90;99.90
84807;DHT22;75042;43.504;3.714;2024-02-15T04:54:32;9.90;99.90
84807;DHT22;75042;43.504;3.714;2024-02-15T04:56:58;10.00;99.90
84807;DHT22;75042;43.504;3.714;2024-02-15T04:59:23;9.90;99.90
84807;DHT22;75042;43.504;3.714;2024-02-15T05:01:54;10.00;99.90
84807;DHT22;75042;43.504;3.714;2024-02-15T05:04:21;10.00;99.90
84807;DHT22;75042;43.504;3.714;2024-02-15T05:06:48;10.00;99.90
84807;DHT22;75042;43.504;3.714;2024-02-15T05:09:13;10.00;99.90
84807;DHT22;75042;43.504;3.714;2024-02-15T05:11:42;10.00;99.90
84807;DHT22;75042;43.504;3.714;2024-02-15T05:14:12;9.90;99.90
84807;DHT22;75042;43.504;3.714;2024-02-15T05:16:38;10.00;99.90
84807;DHT22;75042;43.504;3.714;2024-02-15T05:19:09;10.00;99.90
84807;DHT22;75042;43.504;3.714;2024-02-15T05:21:37;10.00;99.90
84807;DHT22;75042;43.504;3.714;2024-02-15T05:24:06;10.00;99.90
84807;DHT22;75042;43.504;3.714;2024-02-15T05:26:31;10.00;99.90
84807;DHT22;75042;43.504;3.714;2024-02-15T05:28:57;10.00;99.90
84807;DHT22;75042;43.504;3.714;2024-02-15T05:31:23;10.00;99.90
84807;DHT22;75042;43.504;3.714;2024-02-15T05:33:51;10.00;99.90
84807;DHT22;75042;43.504;3.714;2024-02-15T05:36:18;10.00;99.90
84807;DHT22;75042;43.504;3.714;2024-02-15T05:38:47;10.00;99.90
84807;DHT22;75042;43.504;3.714;2024-02-15T05:41:12;10.00;99.90
84807;DHT22;75042;43.504;3.714;2024-02-15T05:43:38;10.00;99.90
84807;DHT22;75042;43.504;3.714;2024-02-15T05:46:04;10.00;99.90
84807;DHT22;75042;43.504;3.714;2024-02-15T05:48:32;10.00;99.90
84807;DHT22;75042;43.504;3.714;2024-02-15T05:51:03;10.00;99.90
84807;DHT22;75042;43.504;3.714;2024-02-15T05:53:29;10.00;99.90
84807;DHT22;75042;43.504;3.714;2024-02-15T05:55:55;10.00;99.90
84807;DHT22;75042;43.504;3.714;2024-02-15T05:58:26;10.00;99.90
84807;DHT22;75042;43.504;3.714;2024-02-15T06:00:51;10.00;99.90
84807;DHT22;75042;43.504;3.714;2024-02-15T06:03:21;10.00;99.90
84807;DHT22;75042;43.504;3.714;2024-02-15T06:05:51;10.00;99.90
84807;DHT22;75042;43.504;3.714;2024-02-15T06:08:17;10.00;99.90
84807;DHT22;75042;43.504;3.714;2024-02-15T06:10:43;10.00;99.90
84807;DHT22;75042;43.504;3.714;2024-02-15T06:13:09;10.00;99.90
84807;DHT22;75042;43.504;3.714;2024-02-15T06:15:35;10.00;99.90
84807;DHT22;75042;43.504;3.714;2024-02-15T06:18:01;10.10;99.90
84807;DHT22;75042;43.504;3.714;2024-02-15T06:20:29;10.10;99.90
84807;DHT22;75042;43.504;3.714;2024-02-15T06:22:56;10.10;99.90
84807;DHT22;75042;43.504;3.714;2024-02-15T06:25:21;10.10;99.90
84807;DHT22;75042;43.504;3.714;2024-02-15T06:27:48;10.10;99.70
84807;DHT22;75042;43.504;3.714;2024-02-15T06:30:16;10.10;99.60
84807;DHT22;75042;43.504;3.714;2024-02-15T06:33:00;10.10;99.70
84807;DHT22;75042;43.504;3.714;2024-02-15T06:35:44;10.10;99.60
84807;DHT22;75042;43.504;3.714;2024-02-15T06:38:36;10.10;99.60
84807;DHT22;75042;43.504;3.714;2024-02-15T06:41:20;10.10;99.40
84807;DHT22;75042;43.504;3.714;2024-02-15T06:43:45;10.10;99.20
84807;DHT22;75042;43.504;3.714;2024-02-15T06:46:11;10.10;99.30
84807;DHT22;75042;43.504;3.714;2024-02-15T06:48:41;10.10;99.50
84807;DHT22;75042;43.504;3.714;2024-02-15T06:51:11;10.10;99.40
84807;DHT22;75042;43.504;3.714;2024-02-15T06:53:38;10.20;99.10
84807;DHT22;75042;43.504;3.714;2024-02-15T06:56:04;10.20;98.90
84807;DHT22;75042;43.504;3.714;2024-02-15T06:58:30;10.20;98.60
84807;DHT22;75042;43.504;3.714;2024-02-15T07:00:55;10.20;97.90
84807;DHT22;75042;43.504;3.714;2024-02-15T07:03:21;10.20;97.40
84807;DHT22;75042;43.504;3.714;2024-02-15T07:05:48;10.20;97.10
84807;DHT22;75042;43.504;3.714;2024-02-15T07:08:14;10.20;96.70
84807;DHT22;75042;43.504;3.714;2024-02-15T07:10:39;10.20;96.80
84807;DHT22;75042;43.504;3.714;2024-02-15T07:13:05;10.10;96.70
84807;DHT22;75042;43.504;3.714;2024-02-15T07:15:33;10.20;96.30
84807;DHT22;75042;43.504;3.714;2024-02-15T07:18:06;10.20;96.10
84807;DHT22;75042;43.504;3.714;2024-02-15T07:20:32;10.20;96.10
84807;DHT22;75042;43.504;3.714;2024-02-15T07:22:57;10.20;96.10
84807;DHT22;75042;43.504;3.714;2024-02-15T07:25:23;10.20;95.70
84807;DHT22;75042;43.504;3.714;2024-02-15T07:27:49;10.10;95.60
84807;DHT22;75042;43.504;3.714;2024-02-15T07:30:14;10.10;95.90
84807;DHT22;75042;43.504;3.714;2024-02-15T07:32:40;10.10;95.90
84807;DHT22;75042;43.504;3.714;2024-02-15T07:35:05;10.10;96.40
84807;DHT22;75042;43.504;3.714;2024-02-15T07:37:36;10.20;96.40
84807;DHT22;75042;43.504;3.714;2024-02-15T07:40:01;10.20;95.80
84807;DHT22;75042;43.504;3.714;2024-02-15T07:42:29;10.20;95.20
84807;DHT22;75042;43.504;3.714;2024-02-15T07:44:54;10.20;95.20
84807;DHT22;75042;43.504;3.714;2024-02-15T07:47:20;10.20;95.20
84807;DHT22;75042;43.504;3.714;2024-02-15T07:49:49;10.20;95.60
84807;DHT22;75042;43.504;3.714;2024-02-15T07:52:15;10.20;95.80
84807;DHT22;75042;43.504;3.714;2024-02-15T07:54:41;10.30;95.50
84807;DHT22;75042;43.504;3.714;2024-02-15T07:57:06;10.30;95.70
84807;DHT22;75042;43.504;3.714;2024-02-15T07:59:32;10.30;95.30
84807;DHT22;75042;43.504;3.714;2024-02-15T08:01:58;10.30;95.20
84807;DHT22;75042;43.504;3.714;2024-02-15T08:04:23;10.40;95.30
84807;DHT22;75042;43.504;3.714;2024-02-15T08:06:50;10.40;95.40
84807;DHT22;75042;43.504;3.714;2024-02-15T08:09:18;10.40;95.10
84807;DHT22;75042;43.504;3.714;2024-02-15T08:11:47;10.40;95.10
84807;DHT22;75042;43.504;3.714;2024-02-15T08:14:12;10.50;95.20
84807;DHT22;75042;43.504;3.714;2024-02-15T08:16:38;10.50;95.10
84807;DHT22;75042;43.504;3.714;2024-02-15T08:19:05;10.50;94.70
84807;DHT22;75042;43.504;3.714;2024-02-15T08:21:33;10.50;95.00
84807;DHT22;75042;43.504;3.714;2024-02-15T08:24:02;10.60;95.40
84807;DHT22;75042;43.504;3.714;2024-02-15T08:26:37;10.60;95.20
84807;DHT22;75042;43.504;3.714;2024-02-15T08:29:03;10.70;95.00
84807;DHT22;75042;43.504;3.714;2024-02-15T08:31:29;10.60;94.90
84807;DHT22;75042;43.504;3.714;2024-02-15T08:33:59;10.70;95.10
84807;DHT22;75042;43.504;3.714;2024-02-15T08:36:25;10.70;95.10
84807;DHT22;75042;43.504;3.714;2024-02-15T08:38:51;10.70;94.70
84807;DHT22;75042;43.504;3.714;2024-02-15T08:41:17;10.80;94.60
84807;DHT22;75042;43.504;3.714;2024-02-15T08:43:46;10.80;93.80
84807;DHT22;75042;43.504;3.714;2024-02-15T08:46:14;10.80;94.20
84807;DHT22;75042;43.504;3.714;2024-02-15T08:48:39;10.80;93.80
84807;DHT22;75042;43.504;3.714;2024-02-15T08:51:06;10.90;94.00
84807;DHT22;75042;43.504;3.714;2024-02-15T08:53:34;10.90;94.00
84807;DHT22;75042;43.504;3.714;2024-02-15T08:56:02;10.90;94.10
84807;DHT22;75042;43.504;3.714;2024-02-15T08:58:27;10.90;94.10
84807;DHT22;75042;43.504;3.714;2024-02-15T09:00:55;10.90;93.90
84807;DHT22;75042;43.504;3.714;2024-02-15T09:03:21;10.90;93.80
84807;DHT22;75042;43.504;3.714;2024-02-15T09:05:47;10.90;93.70
84807;DHT22;75042;43.504;3.714;2024-02-15T09:08:13;10.90;93.60
84807;DHT22;75042;43.504;3.714;2024-02-15T09:10:39;10.80;93.60
84807;DHT22;75042;43.504;3.714;2024-02-15T09:13:04;10.90;93.70
84807;DHT22;75042;43.504;3.714;2024-02-15T09:15:32;10.80;93.30
84807;DHT22;75042;43.504;3.714;2024-02-15T09:17:57;10.90;93.20
84807;DHT22;75042;43.504;3.714;2024-02-15T09:20:23;10.90;93.00
84807;DHT22;75042;43.504;3.714;2024-02-15T09:22:53;10.90;93.10
84807;DHT22;75042;43.504;3.714;2024-02-15T09:25:22;11.00;93.10
84807;DHT22;75042;43.504;3.714;2024-02-15T09:27:48;11.10;93.20
84807;DHT22;75042;43.504;3.714;2024-02-15T09:30:15;11.10;93.40
84807;DHT22;75042;43.504;3.714;2024-02-15T09:32:41;11.20;93.40
84807;DHT22;75042;43.504;3.714;2024-02-15T09:35:07;11.30;92.90
84807;DHT22;75042;43.504;3.714;2024-02-15T09:37:36;11.20;93.20
84807;DHT22;75042;43.504;3.714;2024-02-15T09:40:10;11.30;93.10
84807;DHT22;75042;43.504;3.714;2024-02-15T09:42:37;11.20;93.40
84807;DHT22;75042;43.504;3.714;2024-02-15T09:45:04;11.20;93.60
84807;DHT22;75042;43.504;3.714;2024-02-15T09:47:37;11.20;94.00
84807;DHT22;75042;43.504;3.714;2024-02-15T09:50:09;11.20;93.50
84807;DHT22;75042;43.504;3.714;2024-02-15T09:52:38;11.20;93.80
84807;DHT22;75042;43.504;3.714;2024-02-15T09:55:04;11.20;94.00
84807;DHT22;75042;43.504;3.714;2024-02-15T09:57:30;11.20;94.30
84807;DHT22;75042;43.504;3.714;2024-02-15T10:00:00;11.20;94.20
84807;DHT22;75042;43.504;3.714;2024-02-15T10:02:26;11.20;94.00
84807;DHT22;75042;43.504;3.714;2024-02-15T10:04:53;11.20;93.90
84807;DHT22;75042;43.504;3.714;2024-02-15T10:07:22;11.20;94.00
84807;DHT22;75042;43.504;3.714;2024-02-15T10:09:47;11.30;93.70
84807;DHT22;75042;43.504;3.714;2024-02-15T10:12:13;11.30;93.50
84807;DHT22;75042;43.504;3.714;2024-02-15T10:14:38;11.30;93.40
84807;DHT22;75042;43.504;3.714;2024-02-15T10:17:10;11.30;93.70
84807;DHT22;75042;43.504;3.714;2024-02-15T10:19:39;11.40;93.60
84807;DHT22;75042;43.504;3.714;2024-02-15T10:22:05;11.40;94.00
84807;DHT22;75042;43.504;3.714;2024-02-15T10:24:31;11.50;94.00
84807;DHT22;75042;43.504;3.714;2024-02-15T10:27:03;11.50;94.00
84807;DHT22;75042;43.504;3.714;2024-02-15T10:29:36;11.50;94.10
84807;DHT22;75042;43.504;3.714;2024-02-15T10:32:02;11.50;94.10
84807;DHT22;75042;43.504;3.714;2024-02-15T10:34:28;11.50;94.30
84807;DHT22;75042;43.504;3.714;2024-02-15T10:36:54;11.60;94.20
84807;DHT22;75042;43.504;3.714;2024-02-15T10:39:23;11.60;93.90
84807;DHT22;75042;43.504;3.714;2024-02-15T10:41:50;11.60;94.20
84807;DHT22;75042;43.504;3.714;2024-02-15T10:44:17;11.80;94.00
84807;DHT22;75042;43.504;3.714;2024-02-15T10:46:50;11.70;94.00
84807;DHT22;75042;43.504;3.714;2024-02-15T10:49:20;11.80;93.80
84807;DHT22;75042;43.504;3.714;2024-02-15T10:51:48;11.70;94.00
84807;DHT22;75042;43.504;3.714;2024-02-15T10:54:15;11.70;94.10
84807;DHT22;75042;43.504;3.714;2024-02-15T10:56:46;11.70;94.40
84807;DHT22;75042;43.504;3.714;2024-02-15T11:01:40;11.70;94.60
84807;DHT22;75042;43.504;3.714;2024-02-15T11:04:07;11.70;95.10
84807;DHT22;75042;43.504;3.714;2024-02-15T11:06:33;11.80;95.30
84807;DHT22;75042;43.504;3.714;2024-02-15T11:09:00;11.80;95.40
84807;DHT22;75042;43.504;3.714;2024-02-15T11:11:26;11.80;95.50
84807;DHT22;75042;43.504;3.714;2024-02-15T11:16:41;11.90;95.80
84807;DHT22;75042;43.504;3.714;2024-02-15T11:19:06;11.90;95.70
84807;DHT22;75042;43.504;3.714;2024-02-15T11:24:28;11.90;95.90
84807;DHT22;75042;43.504;3.714;2024-02-15T11:27:03;11.90;96.00
84807;DHT22;75042;43.504;3.714;2024-02-15T11:35:02;12.00;96.10
84807;DHT22;75042;43.504;3.714;2024-02-15T11:40:13;12.00;96.30
84807;DHT22;75042;43.504;3.714;2024-02-15T11:42:38;12.10;95.80
84807;DHT22;75042;43.504;3.714;2024-02-15T11:45:07;12.10;96.20
84807;DHT22;75042;43.504;3.714;2024-02-15T11:47:35;12.10;97.00
84807;DHT22;75042;43.504;3.714;2024-02-15T11:50:02;12.10;97.60
84807;DHT22;75042;43.504;3.714;2024-02-15T11:52:28;12.10;97.80
84807;DHT22;75042;43.504;3.714;2024-02-15T11:54:54;12.20;97.60
84807;DHT22;75042;43.504;3.714;2024-02-15T11:57:29;12.20;97.70
84807;DHT22;75042;43.504;3.714;2024-02-15T12:00:02;12.20;97.70
84807;DHT22;75042;43.504;3.714;2024-02-15T12:02:46;12.20;98.00
84807;DHT22;75042;43.504;3.714;2024-02-15T12:05:31;12.20;98.50
84807;DHT22;75042;43.504;3.714;2024-02-15T12:08:15;12.20;98.80
84807;DHT22;75042;43.504;3.714;2024-02-15T12:10:59;12.30;99.30
84807;DHT22;75042;43.504;3.714;2024-02-15T12:13:49;12.50;99.60
84807;DHT22;75042;43.504;3.714;2024-02-15T12:16:33;12.60;99.30
84807;DHT22;75042;43.504;3.714;2024-02-15T12:19:18;12.80;98.80
84807;DHT22;75042;43.504;3.714;2024-02-15T12:21:43;13.10;97.50
84807;DHT22;75042;43.504;3.714;2024-02-15T12:24:09;13.20;97.30
84807;DHT22;75042;43.504;3.714;2024-02-15T12:26:34;13.40;96.20
84807;DHT22;75042;43.504;3.714;2024-02-15T12:29:00;13.30;95.90
84807;DHT22;75042;43.504;3.714;2024-02-15T12:31:26;13.20;96.60
84807;DHT22;75042;43.504;3.714;2024-02-15T12:34:02;13.20;96.60
84807;DHT22;75042;43.504;3.714;2024-02-15T12:36:32;13.30;96.60
84807;DHT22;75042;43.504;3.714;2024-02-15T12:39:02;13.40;96.30
84807;DHT22;75042;43.504;3.714;2024-02-15T12:41:28;13.40;96.20
84807;DHT22;75042;43.504;3.714;2024-02-15T12:43:55;13.40;96.50
84807;DHT22;75042;43.504;3.714;2024-02-15T12:46:23;13.40;96.00
84807;DHT22;75042;43.504;3.714;2024-02-15T12:48:48;13.30;96.90
84807;DHT22;75042;43.504;3.714;2024-02-15T12:51:15;13.40;96.40
84807;DHT22;75042;43.504;3.714;2024-02-15T12:53:40;13.40;96.60
84807;DHT22;75042;43.504;3.714;2024-02-15T12:56:09;13.30;96.70
84807;DHT22;75042;43.504;3.714;2024-02-15T12:58:34;13.20;97.10
84807;DHT22;75042;43.504;3.714;2024-02-15T13:01:00;13.20;97.00
84807;DHT22;75042;43.504;3.714;2024-02-15T13:03:27;13.20;97.20
84807;DHT22;75042;43.504;3.714;2024-02-15T13:05:52;13.20;96.80
84807;DHT22;75042;43.504;3.714;2024-02-15T13:08:18;13.30;96.40
84807;DHT22;75042;43.504;3.714;2024-02-15T13:10:45;13.50;95.50
84807;DHT22;75042;43.504;3.714;2024-02-15T13:13:11;13.60;94.90
84807;DHT22;75042;43.504;3.714;2024-02-15T13:15:37;14.00;93.90
84807;DHT22;75042;43.504;3.714;2024-02-15T13:18:03;14.20;92.20
84807;DHT22;75042;43.504;3.714;2024-02-15T13:20:29;14.10;92.50
84807;DHT22;75042;43.504;3.714;2024-02-15T13:23:00;14.10;92.20
84807;DHT22;75042;43.504;3.714;2024-02-15T13:25:31;14.00;92.50
84807;DHT22;75042;43.504;3.714;2024-02-15T13:27:57;13.90;93.20
84807;DHT22;75042;43.504;3.714;2024-02-15T13:30:23;14.10;92.40
84807;DHT22;75042;43.504;3.714;2024-02-15T13:32:52;14.00;91.80
84807;DHT22;75042;43.504;3.714;2024-02-15T13:35:19;13.90;92.30
84807;DHT22;75042;43.504;3.714;2024-02-15T13:40:14;14.30;91.20
84807;DHT22;75042;43.504;3.714;2024-02-15T13:42:43;14.30;89.80
84807;DHT22;75042;43.504;3.714;2024-02-15T13:45:14;14.30;90.30
84807;DHT22;75042;43.504;3.714;2024-02-15T13:47:41;14.50;89.80
84807;DHT22;75042;43.504;3.714;2024-02-15T13:50:09;14.70;88.80
84807;DHT22;75042;43.504;3.714;2024-02-15T13:52:35;14.40;89.30
84807;DHT22;75042;43.504;3.714;2024-02-15T13:55:01;14.50;89.10
84807;DHT22;75042;43.504;3.714;2024-02-15T13:57:27;14.60;88.80
84807;DHT22;75042;43.504;3.714;2024-02-15T13:59:53;14.60;88.90
84807;DHT22;75042;43.504;3.714;2024-02-15T14:02:19;14.50;88.70
84807;DHT22;75042;43.504;3.714;2024-02-15T14:04:45;14.50;88.80
84807;DHT22;75042;43.504;3.714;2024-02-15T14:07:10;14.40;89.00
84807;DHT22;75042;43.504;3.714;2024-02-15T14:09:36;14.40;89.30
84807;DHT22;75042;43.504;3.714;2024-02-15T14:12:02;14.40;89.30
84807;DHT22;75042;43.504;3.714;2024-02-15T14:14:31;14.30;89.00
84807;DHT22;75042;43.504;3.714;2024-02-15T14:16:56;14.30;89.20
84807;DHT22;75042;43.504;3.714;2024-02-15T14:19:22;14.30;89.60
84807;DHT22;75042;43.504;3.714;2024-02-15T14:21:51;14.20;89.50
84807;DHT22;75042;43.504;3.714;2024-02-15T14:24:19;14.10;90.00
84807;DHT22;75042;43.504;3.714;2024-02-15T14:26:48;14.20;90.00
84807;DHT22;75042;43.504;3.714;2024-02-15T14:29:14;14.00;90.80
84807;DHT22;75042;43.504;3.714;2024-02-15T14:31:40;13.90;91.40
84807;DHT22;75042;43.504;3.714;2024-02-15T14:34:24;13.90;91.50
84807;DHT22;75042;43.504;3.714;2024-02-15T14:36:51;14.10;91.70
84807;DHT22;75042;43.504;3.714;2024-02-15T14:39:16;14.10;91.50
84807;DHT22;75042;43.504;3.714;2024-02-15T14:41:44;13.90;92.00
84807;DHT22;75042;43.504;3.714;2024-02-15T14:44:10;13.90;92.10
84807;DHT22;75042;43.504;3.714;2024-02-15T14:46:39;13.80;91.90
84807;DHT22;75042;43.504;3.714;2024-02-15T14:49:05;13.80;92.30
84807;DHT22;75042;43.504;3.714;2024-02-15T14:51:31;13.80;92.80
84807;DHT22;75042;43.504;3.714;2024-02-15T14:53:59;13.70;93.60
84807;DHT22;75042;43.504;3.714;2024-02-15T14:56:25;13.70;93.40
84807;DHT22;75042;43.504;3.714;2024-02-15T14:58:50;13.60;94.30
84807;DHT22;75042;43.504;3.714;2024-02-15T15:01:17;13.50;94.40
84807;DHT22;75042;43.504;3.714;2024-02-15T15:03:52;13.50;94.50
84807;DHT22;75042;43.504;3.714;2024-02-15T15:06:17;13.40;95.10
84807;DHT22;75042;43.504;3.714;2024-02-15T15:09:02;13.40;95.50
84807;DHT22;75042;43.504;3.714;2024-02-15T15:11:46;13.40;95.40
84807;DHT22;75042;43.504;3.714;2024-02-15T15:14:30;13.40;95.80
84807;DHT22;75042;43.504;3.714;2024-02-15T15:16:56;13.50;95.20
84807;DHT22;75042;43.504;3.714;2024-02-15T15:19:21;13.40;95.40
84807;DHT22;75042;43.504;3.714;2024-02-15T15:21:47;13.40;95.40
84807;DHT22;75042;43.504;3.714;2024-02-15T15:24:13;13.40;95.20
84807;DHT22;75042;43.504;3.714;2024-02-15T15:26:38;13.30;95.90
84807;DHT22;75042;43.504;3.714;2024-02-15T15:29:04;13.30;96.30
84807;DHT22;75042;43.504;3.714;2024-02-15T15:31:30;13.30;96.40
84807;DHT22;75042;43.504;3.714;2024-02-15T15:33:56;13.40;96.00
84807;DHT22;75042;43.504;3.714;2024-02-15T15:36:22;13.30;96.20
84807;DHT22;75042;43.504;3.714;2024-02-15T15:38:47;13.30;96.10
84807;DHT22;75042;43.504;3.714;2024-02-15T15:41:13;13.30;96.40
84807;DHT22;75042;43.504;3.714;2024-02-15T15:43:38;13.30;96.50
84807;DHT22;75042;43.504;3.714;2024-02-15T15:46:04;13.30;96.50
84807;DHT22;75042;43.504;3.714;2024-02-15T15:48:30;13.10;97.30
84807;DHT22;75042;43.504;3.714;2024-02-15T15:50:56;13.10;97.30
84807;DHT22;75042;43.504;3.714;2024-02-15T15:53:24;13.10;97.50
84807;DHT22;75042;43.504;3.714;2024-02-15T15:55:50;13.10;97.80
84807;DHT22;75042;43.504;3.714;2024-02-15T15:58:15;13.00;97.80